N51CP KDEN-KLBF
Flight info
| Callsign | N51CP |
|---|---|
| Flight time | N/A |
| Altitude | 29000 |
| Route | PLAIN2 AKO LBF |
| Aircraft | TBM9/L-SDFGRWY/S |
Departure
| Time | 2026-05-04 18:06 |
|---|---|
| Airport | Denver International Airport (KDEN) |
Arrival
| Time | N/A |
|---|---|
| Airport | North Platte Regional Airport Lee Bird Field (KLBF) |
| Time | Latitude | Longitude | Altitude | Speed | Heading |
|---|---|---|---|---|---|
| 2026-05-04 17:59 | 39.83872 | -104.66524 | 5408 ft | 0 kts | 5° |
| 2026-05-04 18:03 | 39.83884 | -104.66517 | 5404 ft | 7 kts | 43° |
| 2026-05-04 18:03 | 39.83939 | -104.66442 | 5407 ft | 17 kts | 41° |
| 2026-05-04 18:03 | 39.84015 | -104.66308 | 5416 ft | 18 kts | 106° |
| 2026-05-04 18:03 | 39.83903 | -104.66258 | 5418 ft | 24 kts | 181° |
| 2026-05-04 18:04 | 39.83723 | -104.66257 | 5413 ft | 28 kts | 181° |
| 2026-05-04 18:04 | 39.83514 | -104.66261 | 5423 ft | 30 kts | 182° |
| 2026-05-04 18:04 | 39.83088 | -104.66267 | 5421 ft | 30 kts | 182° |
| 2026-05-04 18:05 | 39.82905 | -104.66267 | 5432 ft | 17 kts | 183° |
| 2026-05-04 18:05 | 39.82846 | -104.66175 | 5435 ft | 18 kts | 96° |
| 2026-05-04 18:05 | 39.82908 | -104.66057 | 5436 ft | 20 kts | 356° |
| 2026-05-04 18:05 | 39.83202 | -104.66056 | 5431 ft | 67 kts | 356° |
| 2026-05-04 18:06 | 39.84627 | -104.65852 | 5656 ft | 124 kts | 1° |
| 2026-05-04 18:06 | 39.85517 | -104.65711 | 6022 ft | 135 kts | 0° |
| 2026-05-04 18:06 | 39.86480 | -104.65574 | 6355 ft | 144 kts | 359° |
| 2026-05-04 18:07 | 39.87491 | -104.65248 | 6627 ft | 157 kts | 28° |
| 2026-05-04 18:07 | 39.88123 | -104.64054 | 6934 ft | 172 kts | 71° |
| 2026-05-04 18:07 | 39.88464 | -104.62490 | 7215 ft | 186 kts | 71° |
| 2026-05-04 18:07 | 39.88833 | -104.60814 | 7501 ft | 197 kts | 71° |
| 2026-05-04 18:08 | 39.89139 | -104.59043 | 7830 ft | 202 kts | 76° |
| 2026-05-04 18:08 | 39.89393 | -104.57272 | 8276 ft | 202 kts | 76° |
| 2026-05-04 18:08 | 39.89681 | -104.55463 | 8675 ft | 202 kts | 76° |
| 2026-05-04 18:08 | 39.89979 | -104.53654 | 9013 ft | 206 kts | 76° |
| 2026-05-04 18:09 | 39.90566 | -104.50042 | 9861 ft | 205 kts | 75° |
| 2026-05-04 18:09 | 39.91163 | -104.46343 | 10545 ft | 209 kts | 76° |
| 2026-05-04 18:10 | 39.91459 | -104.44509 | 10911 ft | 209 kts | 76° |
| 2026-05-04 18:10 | 39.91761 | -104.42639 | 11238 ft | 211 kts | 77° |
| 2026-05-04 18:10 | 39.92065 | -104.40755 | 11587 ft | 213 kts | 76° |
| 2026-05-04 18:10 | 39.92365 | -104.38899 | 11997 ft | 211 kts | 75° |
| 2026-05-04 18:11 | 39.92667 | -104.37013 | 12360 ft | 213 kts | 77° |
| 2026-05-04 18:11 | 39.92973 | -104.35120 | 12720 ft | 215 kts | 75° |
| 2026-05-04 18:11 | 39.93274 | -104.33230 | 13080 ft | 215 kts | 75° |
| 2026-05-04 18:11 | 39.93580 | -104.31322 | 13456 ft | 215 kts | 76° |
| 2026-05-04 18:12 | 39.93887 | -104.29394 | 13760 ft | 218 kts | 76° |
| 2026-05-04 18:12 | 39.94200 | -104.27448 | 14079 ft | 219 kts | 76° |
| 2026-05-04 18:12 | 39.94511 | -104.25501 | 14422 ft | 219 kts | 77° |
| 2026-05-04 18:12 | 39.94822 | -104.23559 | 14700 ft | 223 kts | 77° |
| 2026-05-04 18:13 | 39.95140 | -104.21563 | 14998 ft | 226 kts | 78° |
| 2026-05-04 18:13 | 39.95459 | -104.19552 | 15346 ft | 226 kts | 77° |
| 2026-05-04 18:13 | 39.96072 | -104.15692 | 15937 ft | 230 kts | 77° |
| 2026-05-04 18:14 | 39.96399 | -104.13643 | 16279 ft | 230 kts | 78° |
| 2026-05-04 18:14 | 39.96723 | -104.11592 | 16619 ft | 232 kts | 78° |
| 2026-05-04 18:14 | 39.97045 | -104.09550 | 16940 ft | 234 kts | 78° |
| 2026-05-04 18:15 | 39.97708 | -104.05358 | 17630 ft | 236 kts | 79° |
| 2026-05-04 18:15 | 39.98371 | -104.01148 | 18237 ft | 239 kts | 79° |
| 2026-05-04 18:15 | 39.98708 | -103.99007 | 18527 ft | 241 kts | 79° |
| 2026-05-04 18:16 | 39.99046 | -103.96856 | 18803 ft | 243 kts | 79° |
| 2026-05-04 18:16 | 39.99387 | -103.94680 | 19085 ft | 245 kts | 79° |
| 2026-05-04 18:16 | 39.99726 | -103.92514 | 19360 ft | 246 kts | 79° |
| 2026-05-04 18:17 | 40.00420 | -103.88085 | 19914 ft | 250 kts | 79° |
| 2026-05-04 18:17 | 40.00767 | -103.85852 | 20207 ft | 252 kts | 79° |
| 2026-05-04 18:17 | 40.01470 | -103.81346 | 20752 ft | 256 kts | 78° |
| 2026-05-04 18:18 | 40.01824 | -103.79072 | 21044 ft | 258 kts | 78° |
| 2026-05-04 18:18 | 40.02194 | -103.76761 | 21322 ft | 260 kts | 75° |
| 2026-05-04 18:18 | 40.02715 | -103.74495 | 21604 ft | 261 kts | 72° |
| 2026-05-04 18:18 | 40.03242 | -103.72237 | 21876 ft | 263 kts | 72° |
| 2026-05-04 18:19 | 40.04295 | -103.67625 | 22430 ft | 266 kts | 72° |
| 2026-05-04 18:19 | 40.04829 | -103.65293 | 22706 ft | 268 kts | 72° |
| 2026-05-04 18:19 | 40.05358 | -103.62984 | 22989 ft | 270 kts | 72° |
| 2026-05-04 18:20 | 40.05896 | -103.60627 | 23260 ft | 271 kts | 72° |
| 2026-05-04 18:20 | 40.06440 | -103.58248 | 23495 ft | 273 kts | 72° |
| 2026-05-04 18:20 | 40.06985 | -103.55856 | 23717 ft | 274 kts | 72° |
| 2026-05-04 18:20 | 40.07525 | -103.53489 | 23942 ft | 276 kts | 72° |
| 2026-05-04 18:21 | 40.08072 | -103.51082 | 24242 ft | 278 kts | 72° |
| 2026-05-04 18:21 | 40.08624 | -103.48657 | 24496 ft | 279 kts | 71° |
| 2026-05-04 18:21 | 40.09177 | -103.46221 | 24742 ft | 280 kts | 71° |
| 2026-05-04 18:21 | 40.09734 | -103.43764 | 24983 ft | 282 kts | 71° |
| 2026-05-04 18:22 | 40.10293 | -103.41298 | 25219 ft | 283 kts | 71° |
| 2026-05-04 18:22 | 40.10846 | -103.38853 | 25458 ft | 285 kts | 71° |
| 2026-05-04 18:22 | 40.11409 | -103.36367 | 25696 ft | 286 kts | 71° |
| 2026-05-04 18:22 | 40.11974 | -103.33866 | 25937 ft | 288 kts | 71° |
| 2026-05-04 18:23 | 40.12540 | -103.31353 | 26175 ft | 289 kts | 71° |
| 2026-05-04 18:23 | 40.13110 | -103.28824 | 26407 ft | 290 kts | 71° |
| 2026-05-04 18:23 | 40.13684 | -103.26279 | 26627 ft | 292 kts | 71° |
| 2026-05-04 18:23 | 40.14257 | -103.23728 | 26850 ft | 293 kts | 71° |
| 2026-05-04 18:24 | 40.14834 | -103.21156 | 27078 ft | 295 kts | 71° |
| 2026-05-04 18:24 | 40.15405 | -103.18614 | 27311 ft | 295 kts | 70° |
| 2026-05-04 18:24 | 40.16158 | -103.16130 | 27545 ft | 293 kts | 62° |
| 2026-05-04 18:24 | 40.16984 | -103.13682 | 27787 ft | 294 kts | 63° |
| 2026-05-04 18:25 | 40.17792 | -103.11211 | 27859 ft | 296 kts | 63° |
| 2026-05-04 18:25 | 40.18610 | -103.08727 | 28075 ft | 298 kts | 63° |
| 2026-05-04 18:25 | 40.19439 | -103.06229 | 28286 ft | 299 kts | 63° |
| 2026-05-04 18:25 | 40.20255 | -103.03764 | 28504 ft | 300 kts | 63° |
| 2026-05-04 18:26 | 40.21089 | -103.01238 | 28704 ft | 302 kts | 63° |
| 2026-05-04 18:26 | 40.21937 | -102.98665 | 28712 ft | 310 kts | 63° |
| 2026-05-04 18:26 | 40.23669 | -102.93403 | 28721 ft | 322 kts | 64° |
| 2026-05-04 18:27 | 40.25474 | -102.87911 | 28720 ft | 331 kts | 64° |
| 2026-05-04 18:27 | 40.27297 | -102.82354 | 28718 ft | 337 kts | 64° |
| 2026-05-04 18:28 | 40.29164 | -102.76651 | 28724 ft | 340 kts | 64° |
| 2026-05-04 18:28 | 40.31029 | -102.70949 | 28718 ft | 343 kts | 64° |
| 2026-05-04 18:29 | 40.32903 | -102.65204 | 28719 ft | 345 kts | 64° |
| 2026-05-04 18:29 | 40.34795 | -102.59390 | 28719 ft | 346 kts | 64° |
| 2026-05-04 18:30 | 40.37304 | -102.51664 | 28720 ft | 347 kts | 64° |
| 2026-05-04 18:31 | 40.39197 | -102.45822 | 28713 ft | 347 kts | 64° |
| 2026-05-04 18:31 | 40.41076 | -102.40008 | 28715 ft | 348 kts | 64° |
| 2026-05-04 18:32 | 40.42969 | -102.34140 | 28709 ft | 348 kts | 64° |
| 2026-05-04 18:32 | 40.44850 | -102.28296 | 28710 ft | 349 kts | 64° |
| 2026-05-04 18:33 | 40.46741 | -102.22410 | 28712 ft | 349 kts | 64° |
| 2026-05-04 18:33 | 40.48618 | -102.16552 | 28709 ft | 349 kts | 64° |
| 2026-05-04 18:34 | 40.50512 | -102.10633 | 28714 ft | 351 kts | 64° |
| 2026-05-04 18:34 | 40.51474 | -102.07620 | 28353 ft | 362 kts | 65° |
| 2026-05-04 18:34 | 40.52445 | -102.04565 | 28004 ft | 368 kts | 65° |
| 2026-05-04 18:34 | 40.53440 | -102.01433 | 27687 ft | 371 kts | 64° |
| 2026-05-04 18:35 | 40.54442 | -101.98288 | 27351 ft | 371 kts | 64° |
| 2026-05-04 18:35 | 40.55438 | -101.95157 | 27022 ft | 370 kts | 64° |
| 2026-05-04 18:35 | 40.56420 | -101.92061 | 26695 ft | 370 kts | 64° |
| 2026-05-04 18:35 | 40.57412 | -101.88933 | 26371 ft | 369 kts | 64° |
| 2026-05-04 18:36 | 40.58403 | -101.85803 | 26050 ft | 369 kts | 64° |
| 2026-05-04 18:36 | 40.59375 | -101.82731 | 25737 ft | 368 kts | 65° |
| 2026-05-04 18:36 | 40.60360 | -101.79609 | 25390 ft | 368 kts | 65° |
| 2026-05-04 18:36 | 40.61345 | -101.76485 | 24906 ft | 368 kts | 65° |
| 2026-05-04 18:37 | 40.62326 | -101.73374 | 24434 ft | 367 kts | 65° |
| 2026-05-04 18:37 | 40.63292 | -101.70305 | 23972 ft | 366 kts | 65° |
| 2026-05-04 18:37 | 40.64265 | -101.67213 | 23522 ft | 365 kts | 65° |
| 2026-05-04 18:37 | 40.65234 | -101.64128 | 23007 ft | 364 kts | 65° |
| 2026-05-04 18:38 | 40.66203 | -101.61037 | 22462 ft | 364 kts | 65° |
| 2026-05-04 18:38 | 40.67173 | -101.57942 | 21926 ft | 365 kts | 65° |
| 2026-05-04 18:38 | 40.68140 | -101.54848 | 21400 ft | 365 kts | 65° |
| 2026-05-04 18:38 | 40.69099 | -101.51776 | 20891 ft | 366 kts | 65° |
| 2026-05-04 18:39 | 40.70071 | -101.48664 | 20377 ft | 366 kts | 66° |
| 2026-05-04 18:39 | 40.71033 | -101.45589 | 19879 ft | 366 kts | 66° |
| 2026-05-04 18:39 | 40.72006 | -101.42475 | 19363 ft | 366 kts | 66° |
| 2026-05-04 18:39 | 40.72980 | -101.39344 | 18636 ft | 368 kts | 66° |
| 2026-05-04 18:40 | 40.73941 | -101.36244 | 17930 ft | 368 kts | 66° |
| 2026-05-04 18:40 | 40.74916 | -101.33111 | 17126 ft | 368 kts | 66° |
| 2026-05-04 18:40 | 40.75884 | -101.29989 | 16351 ft | 367 kts | 66° |
| 2026-05-04 18:40 | 40.76849 | -101.26874 | 15586 ft | 366 kts | 66° |
| 2026-05-04 18:41 | 40.77677 | -101.24128 | 15998 ft | 314 kts | 66° |
| 2026-05-04 18:41 | 40.78282 | -101.22163 | 15988 ft | 312 kts | 66° |